Погода Уберабана 2 недели

Минас-Жерайс, Бразилия

16 - 28 июля
  • 16июля
    Сегодня
    +18°
    +28°
    Небольшая облачность
    ВремяПогодаТемператураВлажностьДавлениеВетер, м/сВероятность осадков
    00:00Ясно и безоблачно+19°C51 %703 мм3.5 м/с5 %
    03:00Ясно и безоблачно+18°C48 %702 мм3.3 м/с5 %
    06:00Ясно и безоблачно+17°C51 %702 мм3.2 м/с5 %
    09:00Ясно и безоблачно+21°C44 %704 мм3.2 м/с5 %
    12:00Практически безоблачно+26°C28 %704 мм2.8 м/с5 %
    15:00Небольшая облачность+27°C27 %703 мм1.3 м/с5 %
    18:00Небольшая облачность+25°C43 %703 мм2.1 м/с5 %
    21:00Ясно и безоблачно+22°C48 %703 мм2.0 м/с5 %
  • 17июля
    Среда
    +17°
    +29°
    Ясно и безоблачно
    ВремяПогодаТемператураВлажностьДавлениеВетер, м/сВероятность осадков
    00:00Ясно и безоблачно+20°C50 %704 мм3.1 м/с5 %
    03:00Ясно и безоблачно+19°C53 %702 мм2.7 м/с5 %
    06:00Ясно и безоблачно+18°C55 %702 мм3.0 м/с5 %
    09:00Ясно и безоблачно+21°C46 %705 мм2.4 м/с5 %
    12:00Ясно и безоблачно+27°C32 %705 мм0.4 м/с5 %
    15:00Ясно и безоблачно+28°C30 %703 мм1.5 м/с5 %
    18:00Ясно и безоблачно+26°C34 %703 мм2.9 м/с5 %
    21:00Ясно и безоблачно+23°C43 %702 мм2.1 м/с5 %
  • 18июля
    Четверг
    +18°
    +30°
    Ясно и безоблачно
    ВремяПогодаТемператураВлажностьДавлениеВетер, м/сВероятность осадков
    00:00Практически безоблачно+20°C54 %702 мм2.1 м/с5 %
    03:00Облачно с прояснениями+19°C56 %700 мм2.2 м/с5 %
    06:00Ясно и безоблачно+18°C65 %701 мм2.2 м/с5 %
    09:00Ясно и безоблачно+22°C48 %703 мм1.4 м/с5 %
    12:00Ясно и безоблачно+27°C30 %703 мм0.9 м/с5 %
    15:00Ясно и безоблачно+29°C28 %701 мм1.6 м/с5 %
    18:00Ясно и безоблачно+26°C34 %702 мм2.5 м/с5 %
    21:00Ясно и безоблачно+23°C44 %702 мм1.7 м/с5 %
  • 19июля
    Пятница
    +18°
    +30°
    Ясно и безоблачно
    ВремяПогодаТемператураВлажностьДавлениеВетер, м/сВероятность осадков
    00:00Ясно и безоблачно+20°C51 %702 мм2.7 м/с5 %
    03:00Ясно и безоблачно+19°C55 %702 мм2.7 м/с5 %
    06:00Ясно и безоблачно+19°C56 %702 мм2.9 м/с5 %
    09:00Ясно и безоблачно+24°C41 %705 мм3.0 м/с5 %
    12:00Ясно и безоблачно+28°C28 %704 мм2.0 м/с5 %
    15:00Ясно и безоблачно+30°C27 %703 мм1.8 м/с5 %
    18:00Ясно и безоблачно+27°C36 %703 мм3.0 м/с5 %
    21:00Ясно и безоблачно+23°C46 %703 мм2.3 м/с5 %
Мы используем cookies
Соглашаюсь